createdAt,value
2022-10-22T00:01:06.542Z,17.27
2022-10-22T00:03:33.814Z,15.60
2022-10-22T00:06:00.587Z,15.95
2022-10-22T00:08:27.437Z,16.10
2022-10-22T00:10:54.215Z,18.33
2022-10-22T00:13:21.413Z,17.42
2022-10-22T00:15:48.260Z,16.05
2022-10-22T00:18:15.161Z,17.35
2022-10-22T00:20:41.984Z,13.70
2022-10-22T00:23:08.813Z,15.02
2022-10-22T00:25:36.298Z,13.43
2022-10-22T00:28:03.855Z,19.63
2022-10-22T00:30:30.786Z,20.10
2022-10-22T00:32:57.539Z,22.30
2022-10-22T00:35:24.381Z,16.35
2022-10-22T00:37:51.219Z,19.05
2022-10-22T00:40:18.067Z,17.23
2022-10-22T00:42:44.800Z,16.27
2022-10-22T00:45:11.546Z,17.00
2022-10-22T00:48:04.851Z,16.33
2022-10-22T00:50:41.320Z,14.30
2022-10-22T00:53:15.532Z,16.50
2022-10-22T00:55:44.370Z,14.40
2022-10-22T00:58:12.839Z,17.65
2022-10-22T01:00:39.874Z,15.50
2022-10-22T01:03:07.091Z,15.73
2022-10-22T01:05:51.465Z,14.48
2022-10-22T01:08:39.267Z,14.73
2022-10-22T01:11:34.894Z,16.58
2022-10-22T01:14:25.218Z,16.52
2022-10-22T01:17:10.570Z,19.70
2022-10-22T01:19:46.589Z,15.85
2022-10-22T01:24:58.187Z,13.93
2022-10-22T01:27:52.066Z,15.57
2022-10-22T01:30:19.680Z,14.32
2022-10-22T01:32:57.373Z,16.80
2022-10-22T01:35:29.452Z,15.57
2022-10-22T01:37:59.838Z,17.63
2022-10-22T01:40:28.406Z,19.73
2022-10-22T01:42:56.693Z,19.88
2022-10-22T01:45:23.488Z,20.85
2022-10-22T01:47:59.148Z,20.40
2022-10-22T01:51:03.257Z,19.98
2022-10-22T01:53:50.967Z,18.27
2022-10-22T01:56:24.263Z,19.30
2022-10-22T01:59:08.230Z,21.63
2022-10-22T02:01:52.572Z,18.88
2022-10-22T02:04:26.407Z,21.88
2022-10-22T02:06:58.421Z,20.30
2022-10-22T02:09:28.061Z,21.02
2022-10-22T02:11:56.632Z,15.55
2022-10-22T02:14:25.589Z,19.17
2022-10-22T02:16:52.663Z,14.50
2022-10-22T02:19:27.375Z,18.05
2022-10-22T02:21:54.657Z,18.10
2022-10-22T02:24:22.587Z,22.00
2022-10-22T02:27:06.569Z,16.83
2022-10-22T02:30:02.416Z,20.98
2022-10-22T02:32:36.817Z,17.92
2022-10-22T02:35:04.503Z,20.33
2022-10-22T02:37:32.292Z,17.77
2022-10-22T02:39:59.093Z,20.42
2022-10-22T02:42:26.560Z,22.92
2022-10-22T02:44:53.437Z,18.90
2022-10-22T02:47:20.282Z,19.73
2022-10-22T02:49:47.194Z,18.50
2022-10-22T02:52:14.048Z,21.75
2022-10-22T02:54:40.824Z,18.83
2022-10-22T02:57:07.861Z,18.35
2022-10-22T02:59:34.635Z,15.88
2022-10-22T03:02:01.445Z,23.50
2022-10-22T03:04:28.300Z,20.75
2022-10-22T03:06:55.154Z,16.20
2022-10-22T03:09:24.132Z,19.38
2022-10-22T03:11:52.033Z,17.00
2022-10-22T03:14:19.039Z,21.85
2022-10-22T03:16:45.849Z,20.70
2022-10-22T03:19:12.578Z,18.23
2022-10-22T03:21:48.016Z,21.73
2022-10-22T03:24:22.278Z,19.45
2022-10-22T03:26:51.947Z,18.67
2022-10-22T03:29:21.016Z,21.83
2022-10-22T03:31:47.983Z,31.10
2022-10-22T03:34:15.053Z,23.40
2022-10-22T03:36:42.005Z,18.42
2022-10-22T03:39:11.984Z,18.80
2022-10-22T03:41:38.892Z,19.02
2022-10-22T03:44:06.168Z,18.85
2022-10-22T03:46:33.035Z,19.08
2022-10-22T03:48:59.860Z,18.77
2022-10-22T03:51:28.171Z,17.98
2022-10-22T03:53:55.518Z,16.23
2022-10-22T03:56:22.766Z,18.40
2022-10-22T03:58:49.657Z,22.05
2022-10-22T04:01:16.550Z,21.92
2022-10-22T04:03:43.374Z,20.13
2022-10-22T04:06:13.003Z,21.27
2022-10-22T04:08:41.140Z,16.95
2022-10-22T04:11:08.350Z,24.60
2022-10-22T04:13:35.296Z,18.63
2022-10-22T04:16:24.035Z,25.48
2022-10-22T04:18:53.126Z,18.40
2022-10-22T04:21:19.987Z,17.88
2022-10-22T04:23:52.445Z,19.38
2022-10-22T04:26:20.222Z,14.68
2022-10-22T04:28:48.555Z,18.10
2022-10-22T04:31:17.960Z,18.92
2022-10-22T04:33:44.984Z,20.98
2022-10-22T04:36:18.019Z,17.67
2022-10-22T04:38:47.105Z,19.05
2022-10-22T04:41:16.711Z,17.25
2022-10-22T04:43:44.194Z,18.65
2022-10-22T04:46:12.331Z,20.02
2022-10-22T04:48:41.005Z,18.13
2022-10-22T04:51:09.178Z,22.30
2022-10-22T04:53:36.303Z,18.77
2022-10-22T04:56:12.955Z,17.83
2022-10-22T04:58:40.016Z,20.15
2022-10-22T05:01:12.864Z,21.10
2022-10-22T05:03:39.889Z,21.10
2022-10-22T05:06:07.560Z,19.23
2022-10-22T05:08:34.774Z,18.35
2022-10-22T05:11:01.809Z,18.30
2022-10-22T05:13:28.570Z,17.05
2022-10-22T05:15:55.329Z,16.52
2022-10-22T05:18:22.726Z,20.73
2022-10-22T05:20:49.496Z,15.52
2022-10-22T05:23:16.258Z,16.20
2022-10-22T05:25:43.011Z,18.23
2022-10-22T05:28:09.801Z,21.55
2022-10-22T05:30:36.557Z,20.35
2022-10-22T05:33:03.341Z,17.67
2022-10-22T05:35:30.125Z,21.23
2022-10-22T05:40:30.998Z,17.98
2022-10-22T05:42:58.930Z,21.88
2022-10-22T05:45:25.725Z,21.75
2022-10-22T05:47:52.526Z,23.27
2022-10-22T05:50:19.266Z,16.13
2022-10-22T05:52:46.006Z,18.90
2022-10-22T05:55:12.786Z,19.98
2022-10-22T05:57:40.775Z,14.55
2022-10-22T06:00:10.564Z,19.48
2022-10-22T06:02:39.954Z,17.67
2022-10-22T06:05:07.206Z,14.98
2022-10-22T06:07:34.485Z,27.38
2022-10-22T06:10:02.068Z,17.73
2022-10-22T06:12:28.884Z,15.93
2022-10-22T06:14:55.715Z,21.40
2022-10-22T06:17:22.521Z,14.13
2022-10-22T06:19:49.614Z,20.35
2022-10-22T06:22:16.365Z,17.58
2022-10-22T06:24:45.108Z,21.27
2022-10-22T06:27:12.091Z,19.63
2022-10-22T06:29:38.845Z,18.42
2022-10-22T06:32:05.814Z,15.70
2022-10-22T06:34:32.692Z,22.95
2022-10-22T06:36:59.495Z,22.17
2022-10-22T06:39:26.275Z,23.33
2022-10-22T06:41:53.031Z,19.67
2022-10-22T06:44:20.476Z,19.30
2022-10-22T06:46:52.176Z,17.15
2022-10-22T06:49:20.196Z,17.85
2022-10-22T06:51:50.385Z,17.27
2022-10-22T06:54:17.160Z,16.48
2022-10-22T06:56:43.967Z,17.42
2022-10-22T06:59:10.922Z,18.60
2022-10-22T07:01:38.851Z,18.02
2022-10-22T07:04:06.910Z,13.95
2022-10-22T07:06:33.704Z,18.02
2022-10-22T07:09:00.758Z,12.88
2022-10-22T07:11:58.530Z,16.45
2022-10-22T07:14:25.347Z,19.48
2022-10-22T07:16:52.075Z,16.80
2022-10-22T07:19:18.882Z,16.17
2022-10-22T07:21:45.705Z,23.88
2022-10-22T07:24:12.504Z,18.77
2022-10-22T07:26:39.289Z,17.30
2022-10-22T07:29:06.738Z,15.05
2022-10-22T07:31:33.592Z,13.50
2022-10-22T07:34:00.350Z,18.63
2022-10-22T07:36:27.309Z,12.18
2022-10-22T07:38:57.165Z,12.15
2022-10-22T07:41:24.132Z,14.77
2022-10-22T07:43:51.050Z,14.55
2022-10-22T07:46:18.028Z,17.70
2022-10-22T07:48:44.807Z,16.00
2022-10-22T07:51:11.801Z,14.35
2022-10-22T07:53:38.664Z,16.98
2022-10-22T07:56:06.058Z,15.50
2022-10-22T07:58:33.053Z,13.68
2022-10-22T08:01:01.292Z,13.13
2022-10-22T08:03:29.038Z,15.98
2022-10-22T08:05:56.135Z,13.10
2022-10-22T08:08:25.843Z,12.40
2022-10-22T08:10:58.722Z,19.52
2022-10-22T08:13:26.373Z,11.55
2022-10-22T08:15:56.555Z,15.32
2022-10-22T08:18:24.901Z,14.00
2022-10-22T08:20:53.405Z,10.75
2022-10-22T08:23:24.492Z,11.77
2022-10-22T08:25:55.552Z,14.90
2022-10-22T08:28:22.504Z,15.25
2022-10-22T08:30:49.522Z,12.65
2022-10-22T08:33:16.322Z,13.95
2022-10-22T08:35:48.520Z,12.63
2022-10-22T08:38:15.299Z,19.63
2022-10-22T08:40:44.038Z,15.15
2022-10-22T08:43:16.630Z,12.23
2022-10-22T08:46:07.509Z,14.38
2022-10-22T08:48:48.352Z,14.00
2022-10-22T08:51:21.486Z,13.57
2022-10-22T08:53:59.944Z,12.30
2022-10-22T08:56:27.327Z,13.55
2022-10-22T08:58:59.409Z,9.63
2022-10-22T09:01:36.818Z,10.73
2022-10-22T09:04:12.435Z,12.90
2022-10-22T09:06:41.570Z,14.38
2022-10-22T09:09:35.084Z,16.10
2022-10-22T09:12:04.121Z,13.57
2022-10-22T09:14:31.039Z,16.70
2022-10-22T09:17:21.900Z,16.77
2022-10-22T09:20:11.958Z,18.52
2022-10-22T09:23:21.863Z,13.02
2022-10-22T09:25:51.240Z,17.45
2022-10-22T09:28:18.709Z,17.08
2022-10-22T09:30:46.132Z,15.23
2022-10-22T09:33:22.631Z,15.27
2022-10-22T09:35:54.423Z,12.07
2022-10-22T09:38:28.448Z,14.27
2022-10-22T09:40:57.524Z,13.23
2022-10-22T09:43:24.641Z,20.83
2022-10-22T09:46:00.120Z,16.60
2022-10-22T09:48:32.243Z,19.98
2022-10-22T09:51:23.014Z,12.82
2022-10-22T09:53:58.622Z,15.35
2022-10-22T09:56:27.675Z,13.68
2022-10-22T09:58:57.133Z,14.85
2022-10-22T10:01:34.722Z,11.23
2022-10-22T10:04:09.843Z,15.15
2022-10-22T10:06:40.264Z,15.65
2022-10-22T10:09:18.626Z,19.88
2022-10-22T10:12:29.983Z,20.15
2022-10-22T10:14:59.640Z,19.55
2022-10-22T10:17:45.008Z,18.92
2022-10-22T10:20:49.869Z,15.83
2022-10-22T10:23:55.685Z,16.20
2022-10-22T10:27:01.478Z,18.67
2022-10-22T10:29:34.873Z,15.80
2022-10-22T10:32:32.116Z,19.08
2022-10-22T10:35:21.748Z,22.65
2022-10-22T10:37:51.301Z,19.02
2022-10-22T10:40:57.581Z,21.45
2022-10-22T10:43:51.298Z,20.75
2022-10-22T10:46:50.364Z,19.95
2022-10-22T10:49:29.972Z,18.85
2022-10-22T10:52:18.868Z,18.92
2022-10-22T10:55:17.455Z,18.85
2022-10-22T10:58:12.773Z,19.38
2022-10-22T11:00:56.725Z,20.23
2022-10-22T11:03:58.235Z,22.60
2022-10-22T11:06:26.392Z,20.67
2022-10-22T11:09:05.452Z,21.88
2022-10-22T11:11:41.669Z,23.83
2022-10-22T11:14:18.509Z,21.13
2022-10-22T11:16:57.738Z,17.65
2022-10-22T11:19:50.235Z,17.25
2022-10-22T11:22:42.166Z,17.52
2022-10-22T11:25:32.021Z,18.70
2022-10-22T11:28:11.244Z,17.20
2022-10-22T11:30:40.616Z,15.85
2022-10-22T11:33:19.444Z,19.95
2022-10-22T11:35:47.177Z,17.63
2022-10-22T11:38:22.323Z,16.35
2022-10-22T11:41:02.369Z,15.75
2022-10-22T11:43:33.520Z,18.42
2022-10-22T11:46:23.307Z,20.67
2022-10-22T11:49:13.343Z,23.25
2022-10-22T11:51:42.372Z,18.38
2022-10-22T11:54:44.266Z,19.88
2022-10-22T11:57:17.066Z,21.10
2022-10-22T12:00:11.211Z,16.80
2022-10-22T12:02:41.438Z,15.25
2022-10-22T12:05:39.064Z,20.13
2022-10-22T12:08:26.477Z,13.15
2022-10-22T12:11:06.657Z,16.00
2022-10-22T12:14:10.039Z,14.93
2022-10-22T12:16:55.744Z,15.15
2022-10-22T12:19:23.593Z,10.75
2022-10-22T12:22:11.999Z,13.23
2022-10-22T12:24:41.859Z,11.90
2022-10-22T12:27:23.583Z,10.82
2022-10-22T12:29:55.787Z,10.95
2022-10-22T12:32:22.882Z,16.08
2022-10-22T12:34:51.790Z,15.18
2022-10-22T12:37:19.709Z,14.18
2022-10-22T12:39:47.141Z,20.02
2022-10-22T12:42:18.078Z,10.80
2022-10-22T12:44:45.361Z,14.40
2022-10-22T12:47:18.909Z,16.13
2022-10-22T12:49:50.337Z,14.80
2022-10-22T12:52:22.786Z,16.90
2022-10-22T12:54:54.941Z,16.95
2022-10-22T12:57:22.364Z,16.55
2022-10-22T12:59:51.874Z,19.95
2022-10-22T13:02:27.859Z,18.67
2022-10-22T13:07:43.021Z,11.30
2022-10-22T13:10:20.081Z,12.70
2022-10-22T13:12:51.415Z,13.45
2022-10-22T13:15:39.744Z,18.00
2022-10-22T13:18:19.914Z,11.23
2022-10-22T13:21:01.871Z,15.80
2022-10-22T13:23:31.455Z,16.92
2022-10-22T13:26:15.426Z,11.35
2022-10-22T13:28:43.802Z,13.00
2022-10-22T13:31:20.281Z,11.75
2022-10-22T13:33:56.333Z,18.63
2022-10-22T13:36:23.770Z,14.23
2022-10-22T13:38:50.872Z,19.98
2022-10-22T13:41:24.768Z,15.15
2022-10-22T13:43:52.486Z,15.02
2022-10-22T13:46:20.223Z,17.27
2022-10-22T13:48:48.457Z,15.77
2022-10-22T13:51:21.423Z,13.18
2022-10-22T13:53:50.293Z,15.88
2022-10-22T13:56:19.663Z,17.83
2022-10-22T13:58:47.727Z,15.23
2022-10-22T14:01:25.069Z,21.05
2022-10-22T14:03:54.399Z,15.82
2022-10-22T14:06:22.904Z,22.10
2022-10-22T14:08:55.121Z,12.43
2022-10-22T14:11:21.920Z,14.25
2022-10-22T14:13:48.709Z,20.35
2022-10-22T14:16:23.014Z,18.17
2022-10-22T14:18:50.649Z,21.15
2022-10-22T14:21:18.566Z,15.77
2022-10-22T14:23:47.307Z,20.05
2022-10-22T14:26:23.224Z,14.07
2022-10-22T14:31:42.135Z,22.33
2022-10-22T14:34:14.516Z,18.02
2022-10-22T14:36:43.758Z,21.58
2022-10-22T14:39:10.923Z,16.20
2022-10-22T14:41:37.883Z,16.85
2022-10-22T14:44:04.778Z,16.15
2022-10-22T14:46:31.629Z,18.45
2022-10-22T14:48:58.558Z,15.77
2022-10-22T14:51:25.350Z,20.00
2022-10-22T14:53:52.155Z,13.77
2022-10-22T14:56:23.084Z,18.67
2022-10-22T14:58:50.934Z,17.48
2022-10-22T15:01:17.997Z,17.23
2022-10-22T15:03:45.012Z,15.13
2022-10-22T15:06:11.874Z,21.83
2022-10-22T15:08:39.474Z,16.27
2022-10-22T15:11:12.435Z,18.55
2022-10-22T15:13:41.326Z,19.67
2022-10-22T15:16:10.581Z,17.33
2022-10-22T15:18:38.053Z,19.50
2022-10-22T15:21:20.947Z,21.58
2022-10-22T15:23:48.078Z,21.17
2022-10-22T15:26:15.306Z,23.17
2022-10-22T15:28:42.552Z,26.02
2022-10-22T15:31:14.227Z,19.75
2022-10-22T15:33:42.513Z,19.55
2022-10-22T15:36:16.076Z,16.00
2022-10-22T15:38:42.863Z,17.42
2022-10-22T15:41:12.561Z,17.35
2022-10-22T15:43:39.517Z,22.00
2022-10-22T15:46:18.629Z,16.70
2022-10-22T15:48:46.428Z,20.83
2022-10-22T15:51:19.384Z,21.48
2022-10-22T15:53:58.696Z,21.58
2022-10-22T15:56:27.947Z,20.75
2022-10-22T15:58:57.841Z,21.02
2022-10-22T16:01:26.534Z,22.17
2022-10-22T16:04:00.233Z,23.30
2022-10-22T16:06:34.417Z,23.05
2022-10-22T16:09:04.812Z,21.45
2022-10-22T16:11:32.484Z,28.48
2022-10-22T16:14:00.539Z,26.80
2022-10-22T16:16:30.413Z,22.05
2022-10-22T16:18:57.272Z,25.42
2022-10-22T16:21:24.870Z,21.52
2022-10-22T16:23:52.212Z,18.48
2022-10-22T16:26:19.642Z,21.70
2022-10-22T16:28:48.312Z,22.10
2022-10-22T16:31:17.849Z,25.20
2022-10-22T16:33:49.198Z,20.25
2022-10-22T16:36:19.936Z,16.60
2022-10-22T16:38:48.198Z,21.42
2022-10-22T16:41:19.422Z,24.98
2022-10-22T16:43:51.167Z,17.13
2022-10-22T16:46:19.602Z,19.40
2022-10-22T16:48:51.696Z,20.65
2022-10-22T16:51:24.174Z,18.38
2022-10-22T16:53:55.068Z,20.60
2022-10-22T16:56:22.298Z,24.38
2022-10-22T16:58:51.269Z,20.25
2022-10-22T17:01:20.426Z,19.55
2022-10-22T17:03:47.382Z,20.35
2022-10-22T17:06:14.938Z,19.45
2022-10-22T17:08:42.455Z,19.13
2022-10-22T17:11:11.720Z,18.02
2022-10-22T17:13:40.664Z,25.65
2022-10-22T17:16:09.549Z,19.75
2022-10-22T17:18:38.852Z,23.77
2022-10-22T17:21:07.008Z,21.88
2022-10-22T17:23:33.956Z,22.90
2022-10-22T17:26:09.815Z,27.60
2022-10-22T17:28:36.868Z,27.65
2022-10-22T17:31:04.981Z,26.98
2022-10-22T17:33:31.958Z,24.02
2022-10-22T17:35:58.835Z,21.23
2022-10-22T17:38:25.755Z,23.30
2022-10-22T17:40:52.642Z,26.75
2022-10-22T17:43:19.476Z,23.90
2022-10-22T17:45:46.280Z,24.17
2022-10-22T17:48:13.165Z,23.05
2022-10-22T17:50:46.961Z,31.27
2022-10-22T17:53:16.513Z,29.73
2022-10-22T17:55:43.341Z,25.10
2022-10-22T17:58:10.081Z,44.40
2022-10-22T18:00:37.196Z,38.58
2022-10-22T18:03:04.037Z,35.55
2022-10-22T18:05:30.878Z,36.38
2022-10-22T18:07:57.670Z,33.55
2022-10-22T18:10:24.958Z,27.60
2022-10-22T18:12:51.743Z,23.58
2022-10-22T18:15:18.595Z,29.27
2022-10-22T18:17:47.148Z,26.23
2022-10-22T18:20:14.176Z,31.38
2022-10-22T18:22:42.294Z,30.27
2022-10-22T18:25:09.858Z,26.90
2022-10-22T18:27:37.243Z,27.63
2022-10-22T18:30:04.568Z,32.00
2022-10-22T18:32:33.641Z,30.92
2022-10-22T18:35:00.549Z,32.05
2022-10-22T18:37:27.511Z,33.28
2022-10-22T18:39:54.362Z,27.50
2022-10-22T18:42:21.135Z,32.08
2022-10-22T18:44:49.278Z,30.92
2022-10-22T18:47:16.123Z,34.17
2022-10-22T18:49:42.877Z,37.65
2022-10-22T18:52:09.769Z,30.35
2022-10-22T18:54:36.673Z,28.63
2022-10-22T18:57:03.883Z,34.05
2022-10-22T18:59:31.091Z,31.42
2022-10-22T19:02:02.058Z,31.45
2022-10-22T19:04:36.668Z,31.98
2022-10-22T19:07:05.481Z,29.45
2022-10-22T19:09:32.656Z,34.08
2022-10-22T19:12:00.164Z,33.30
2022-10-22T19:14:27.377Z,30.67
2022-10-22T19:16:54.374Z,34.60
2022-10-22T19:19:22.404Z,36.75
2022-10-22T19:21:50.105Z,35.83
2022-10-22T19:24:18.930Z,34.78
2022-10-22T19:26:47.387Z,29.45
2022-10-22T19:29:16.694Z,40.05
2022-10-22T19:31:44.318Z,32.67
2022-10-22T19:34:11.352Z,34.13
2022-10-22T19:36:38.408Z,34.33
2022-10-22T19:39:06.293Z,31.75
2022-10-22T19:41:33.506Z,32.42
2022-10-22T19:44:01.164Z,32.72
2022-10-22T19:46:30.153Z,33.63
2022-10-22T19:48:57.404Z,37.38
2022-10-22T19:51:26.711Z,36.55
2022-10-22T19:54:08.996Z,38.42
2022-10-22T19:56:37.756Z,35.22
2022-10-22T19:59:05.957Z,37.78
2022-10-22T20:01:32.965Z,38.70
2022-10-22T20:04:01.571Z,37.20
2022-10-22T20:06:28.800Z,35.80
2022-10-22T20:08:56.351Z,37.03
2022-10-22T20:11:30.168Z,36.45
2022-10-22T20:13:58.003Z,33.00
2022-10-22T20:16:28.697Z,37.03
2022-10-22T20:19:00.071Z,32.33
2022-10-22T20:21:27.560Z,34.67
2022-10-22T20:23:56.409Z,35.75
2022-10-22T20:26:24.540Z,35.05
2022-10-22T20:28:52.113Z,33.78
2022-10-22T20:31:20.558Z,40.58
2022-10-22T20:33:50.413Z,40.15
2022-10-22T20:36:20.639Z,37.72
2022-10-22T20:38:50.687Z,38.83
2022-10-22T20:41:23.264Z,30.35
2022-10-22T20:43:51.966Z,32.38
2022-10-22T20:46:23.216Z,34.55
2022-10-22T20:48:58.410Z,33.22
2022-10-22T20:51:25.427Z,34.08
2022-10-22T20:53:52.284Z,32.08
2022-10-22T20:56:19.587Z,26.98
2022-10-22T20:58:50.533Z,29.05
2022-10-22T21:01:24.212Z,33.38
2022-10-22T21:03:52.551Z,29.10
2022-10-22T21:06:23.373Z,30.92
2022-10-22T21:08:51.595Z,30.33
2022-10-22T21:11:18.828Z,29.95
2022-10-22T21:13:45.714Z,31.50
2022-10-22T21:16:14.742Z,28.42
2022-10-22T21:18:41.520Z,29.20
2022-10-22T21:21:09.323Z,32.88
2022-10-22T21:23:36.680Z,34.17
2022-10-22T21:26:04.231Z,31.88
2022-10-22T21:28:35.105Z,37.33
2022-10-22T21:31:04.363Z,32.05
2022-10-22T21:33:31.212Z,32.15
2022-10-22T21:35:58.309Z,33.78
2022-10-22T21:38:25.956Z,31.45
2022-10-22T21:40:53.221Z,32.55
2022-10-22T21:43:20.363Z,36.50
2022-10-22T21:45:47.369Z,31.85
2022-10-22T21:48:15.142Z,33.58
2022-10-22T21:50:43.759Z,28.25
2022-10-22T21:53:12.117Z,35.65
2022-10-22T21:55:42.368Z,28.70
2022-10-22T21:58:09.290Z,31.20
2022-10-22T22:00:36.386Z,30.25
2022-10-22T22:03:03.972Z,34.05
2022-10-22T22:05:30.817Z,30.60
2022-10-22T22:07:57.678Z,30.73
2022-10-22T22:10:26.569Z,32.60
2022-10-22T22:12:53.392Z,35.30
2022-10-22T22:15:20.820Z,38.58
2022-10-22T22:17:47.626Z,34.00
2022-10-22T22:20:14.477Z,35.72
2022-10-22T22:22:41.450Z,37.47
2022-10-22T22:25:08.832Z,36.58
2022-10-22T22:27:35.782Z,31.83
2022-10-22T22:30:03.037Z,33.25
2022-10-22T22:32:29.799Z,41.83
2022-10-22T22:34:56.524Z,36.08
2022-10-22T22:37:23.356Z,36.60
2022-10-22T22:39:50.123Z,32.95
2022-10-22T22:42:16.869Z,35.15
2022-10-22T22:44:43.756Z,34.78
2022-10-22T22:47:10.871Z,35.42
2022-10-22T22:49:37.606Z,36.22
2022-10-22T22:52:04.934Z,35.13
2022-10-22T22:54:31.772Z,35.30
2022-10-22T22:56:58.537Z,30.33
2022-10-22T22:59:25.332Z,34.10
2022-10-22T23:01:52.121Z,35.00
2022-10-22T23:04:23.720Z,37.53
2022-10-22T23:06:51.258Z,31.38
2022-10-22T23:11:47.948Z,29.92
2022-10-22T23:14:16.170Z,32.63
2022-10-22T23:16:49.195Z,35.88
2022-10-22T23:19:18.703Z,32.80
2022-10-22T23:21:47.860Z,32.00
2022-10-22T23:24:17.621Z,28.30
2022-10-22T23:26:47.678Z,32.97
2022-10-22T23:29:20.308Z,28.85
2022-10-22T23:31:48.226Z,32.70
2022-10-22T23:36:50.290Z,35.10
2022-10-22T23:39:20.501Z,35.03
2022-10-22T23:41:47.322Z,35.92
2022-10-22T23:44:14.744Z,30.23
2022-10-22T23:46:41.768Z,35.08
2022-10-22T23:49:09.655Z,32.10
2022-10-22T23:51:37.377Z,32.47
2022-10-22T23:54:10.755Z,31.08
2022-10-22T23:56:37.659Z,33.38
2022-10-22T23:59:05.272Z,37.03
